createdAt,value
2018-07-19T00:01:35.264Z,62.50
2018-07-19T00:04:04.139Z,62.70
2018-07-19T00:06:33.418Z,62.70
2018-07-19T00:09:02.568Z,62.50
2018-07-19T00:11:31.876Z,62.70
2018-07-19T00:14:01.155Z,62.70
2018-07-19T00:16:30.388Z,62.90
2018-07-19T00:18:59.822Z,62.90
2018-07-19T00:21:29.152Z,63.00
2018-07-19T00:23:58.787Z,63.00
2018-07-19T00:26:27.954Z,63.00
2018-07-19T00:28:57.571Z,63.00
2018-07-19T00:31:26.812Z,63.00
2018-07-19T00:33:56.174Z,63.20
2018-07-19T00:36:25.394Z,63.10
2018-07-19T00:38:54.545Z,63.40
2018-07-19T00:41:23.681Z,63.50
2018-07-19T00:43:52.883Z,63.50
2018-07-19T00:46:21.893Z,63.50
2018-07-19T00:48:50.856Z,63.60
2018-07-19T00:51:19.986Z,63.60
2018-07-19T00:53:49.382Z,63.70
2018-07-19T00:56:18.589Z,63.80
2018-07-19T00:58:47.778Z,64.00
2018-07-19T01:01:24.144Z,64.10
2018-07-19T01:03:53.550Z,64.00
2018-07-19T01:06:22.566Z,63.90
2018-07-19T01:08:51.559Z,63.60
2018-07-19T01:11:20.404Z,63.70
2018-07-19T01:13:49.356Z,64.00
2018-07-19T01:16:18.710Z,64.10
2018-07-19T01:18:47.814Z,64.30
2018-07-19T01:21:16.924Z,64.10
2018-07-19T01:23:45.911Z,64.20
2018-07-19T01:26:17.171Z,64.20
2018-07-19T01:28:46.351Z,64.40
2018-07-19T01:31:15.604Z,64.50
2018-07-19T01:33:44.836Z,64.40
2018-07-19T01:36:14.030Z,64.60
2018-07-19T01:38:43.292Z,64.80
2018-07-19T01:41:24.311Z,64.90
2018-07-19T01:43:53.335Z,65.00
2018-07-19T01:46:22.399Z,65.00
2018-07-19T01:48:51.391Z,65.10
2018-07-19T01:51:20.564Z,64.90
2018-07-19T01:56:18.301Z,65.20
2018-07-19T01:58:47.693Z,65.30
2018-07-19T02:01:16.871Z,65.40
2018-07-19T02:03:46.070Z,65.20
2018-07-19T02:06:15.381Z,65.40
2018-07-19T02:08:44.334Z,65.40
2018-07-19T02:11:13.465Z,65.60
2018-07-19T02:13:42.457Z,65.60
2018-07-19T02:16:12.039Z,65.50
2018-07-19T02:21:09.916Z,65.50
2018-07-19T02:23:39.348Z,65.70
2018-07-19T02:26:09.493Z,65.70
2018-07-19T02:28:38.524Z,65.70
2018-07-19T02:34:09.216Z,65.80
2018-07-19T02:36:37.624Z,65.80
2018-07-19T02:39:10.700Z,65.80
2018-07-19T02:41:39.472Z,65.90
2018-07-19T02:44:09.274Z,66.00
2018-07-19T02:46:38.892Z,66.00
2018-07-19T02:49:07.692Z,66.00
2018-07-19T02:51:36.215Z,66.10
2018-07-19T02:54:04.765Z,66.20
2018-07-19T02:56:33.218Z,66.10
2018-07-19T03:01:30.164Z,66.20
2018-07-19T03:03:58.784Z,66.30
2018-07-19T03:06:28.351Z,66.30
2018-07-19T03:08:56.973Z,66.30
2018-07-19T03:11:25.503Z,66.50
2018-07-19T03:13:54.084Z,66.30
2018-07-19T03:16:22.631Z,66.50
2018-07-19T03:18:51.117Z,66.60
2018-07-19T03:21:19.685Z,66.60
2018-07-19T03:23:48.168Z,66.50
2018-07-19T03:26:16.647Z,66.60
2018-07-19T03:28:45.110Z,66.50
2018-07-19T03:31:14.063Z,66.50
2018-07-19T03:33:49.441Z,66.70
2018-07-19T03:36:17.796Z,66.80
2018-07-19T03:38:46.172Z,67.00
2018-07-19T03:41:14.645Z,66.90
2018-07-19T03:43:43.273Z,66.40
2018-07-19T03:46:11.856Z,66.60
2018-07-19T03:48:40.406Z,66.70
2018-07-19T03:51:08.963Z,66.90
2018-07-19T03:53:37.505Z,67.10
2018-07-19T03:56:06.182Z,67.10
2018-07-19T03:58:34.976Z,66.80
2018-07-19T04:01:03.384Z,66.90
2018-07-19T04:03:31.861Z,66.80
2018-07-19T04:06:00.311Z,67.10
2018-07-19T04:08:28.800Z,67.10
2018-07-19T04:10:57.490Z,66.90
2018-07-19T04:13:25.980Z,67.20
2018-07-19T04:15:54.578Z,67.40
2018-07-19T04:18:23.315Z,67.40
2018-07-19T04:20:51.898Z,67.40
2018-07-19T04:23:20.441Z,67.30
2018-07-19T04:25:48.982Z,67.30
2018-07-19T04:28:17.585Z,67.00
2018-07-19T04:30:46.061Z,67.20
2018-07-19T04:33:14.742Z,67.10
2018-07-19T04:35:43.210Z,67.10
2018-07-19T04:38:11.705Z,67.20
2018-07-19T04:40:40.204Z,67.00
2018-07-19T04:43:08.720Z,66.80
2018-07-19T04:45:37.333Z,66.10
2018-07-19T04:48:05.855Z,66.10
2018-07-19T04:50:34.313Z,66.40
2018-07-19T04:53:02.881Z,66.60
2018-07-19T04:55:31.417Z,66.90
2018-07-19T05:00:27.885Z,67.20
2018-07-19T05:02:56.358Z,66.20
2018-07-19T05:07:52.806Z,66.10
2018-07-19T05:10:21.457Z,66.30
2018-07-19T05:12:50.061Z,66.20
2018-07-19T05:15:18.476Z,66.00
2018-07-19T05:17:47.072Z,66.60
2018-07-19T05:20:16.053Z,66.60
2018-07-19T05:22:44.512Z,66.00
2018-07-19T05:27:40.965Z,66.00
2018-07-19T05:30:09.607Z,65.80
2018-07-19T05:32:38.030Z,65.20
2018-07-19T05:35:06.542Z,65.00
2018-07-19T05:37:35.125Z,64.80
2018-07-19T05:40:03.685Z,64.40
2018-07-19T05:42:32.172Z,63.90
2018-07-19T05:45:00.688Z,63.90
2018-07-19T05:47:29.192Z,63.30
2018-07-19T05:49:57.744Z,63.90
2018-07-19T05:52:26.309Z,62.80
2018-07-19T05:54:54.777Z,62.20
2018-07-19T05:57:23.300Z,63.50
2018-07-19T05:59:52.685Z,62.50
2018-07-19T06:02:21.251Z,61.90
2018-07-19T06:04:49.580Z,60.50
2018-07-19T06:07:17.968Z,59.80
2018-07-19T06:09:46.469Z,60.30
2018-07-19T06:12:14.929Z,63.60
2018-07-19T06:14:43.633Z,63.80
2018-07-19T06:17:12.197Z,63.70
2018-07-19T06:19:41.751Z,62.30
2018-07-19T06:22:10.329Z,62.40
2018-07-19T06:24:38.905Z,61.30
2018-07-19T06:27:07.472Z,60.40
2018-07-19T06:29:35.988Z,57.40
2018-07-19T06:32:04.514Z,58.70
2018-07-19T06:34:33.014Z,59.50
2018-07-19T06:37:01.502Z,59.50
2018-07-19T06:39:29.969Z,60.90
2018-07-19T06:41:58.581Z,58.90
2018-07-19T06:44:27.777Z,58.50
2018-07-19T06:46:56.381Z,58.10
2018-07-19T06:49:25.564Z,56.30
2018-07-19T06:51:53.953Z,56.20
2018-07-19T06:54:22.605Z,54.90
2018-07-19T06:56:51.057Z,55.00
2018-07-19T06:59:19.659Z,55.10
2018-07-19T07:01:48.133Z,56.10
2018-07-19T07:04:16.581Z,55.00
2018-07-19T07:06:45.188Z,54.10
2018-07-19T07:09:13.809Z,53.00
2018-07-19T07:11:42.269Z,53.60
2018-07-19T07:14:10.810Z,52.40
2018-07-19T07:16:39.292Z,51.70
2018-07-19T07:19:07.764Z,50.70
2018-07-19T07:21:36.231Z,49.90
2018-07-19T07:24:04.810Z,48.40
2018-07-19T07:26:33.364Z,47.40
2018-07-19T07:29:01.830Z,48.20
2018-07-19T07:31:30.548Z,48.20
2018-07-19T07:33:59.151Z,48.10
2018-07-19T07:36:27.732Z,47.60
2018-07-19T07:38:56.224Z,47.10
2018-07-19T07:41:24.801Z,45.40
2018-07-19T07:43:53.305Z,44.10
2018-07-19T07:46:21.761Z,44.20
2018-07-19T07:48:50.212Z,44.40
2018-07-19T07:51:18.688Z,43.70
2018-07-19T07:53:47.275Z,43.60
2018-07-19T07:56:15.763Z,43.00
2018-07-19T07:58:44.314Z,44.00
2018-07-19T08:01:12.814Z,44.90
2018-07-19T08:03:41.268Z,45.20
2018-07-19T08:06:09.724Z,45.60
2018-07-19T08:08:38.260Z,45.50
2018-07-19T08:11:06.856Z,44.90
2018-07-19T08:13:35.460Z,45.20
2018-07-19T08:18:31.952Z,46.80
2018-07-19T08:21:00.560Z,47.20
2018-07-19T08:23:29.161Z,45.80
2018-07-19T08:25:57.669Z,44.40
2018-07-19T08:28:26.137Z,44.90
2018-07-19T08:30:54.556Z,44.20
2018-07-19T08:35:51.124Z,44.60
2018-07-19T08:38:19.621Z,45.50
2018-07-19T08:40:48.048Z,45.30
2018-07-19T08:43:16.517Z,45.00
2018-07-19T08:45:45.066Z,45.10
2018-07-19T08:48:13.695Z,44.40
2018-07-19T08:50:42.253Z,44.70
2018-07-19T08:53:10.691Z,43.40
2018-07-19T08:55:39.464Z,42.00
2018-07-19T08:58:07.905Z,40.70
2018-07-19T09:00:36.570Z,41.30
2018-07-19T09:03:05.158Z,41.50
2018-07-19T09:05:33.577Z,42.30
2018-07-19T09:08:02.053Z,43.30
2018-07-19T09:10:30.720Z,43.60
2018-07-19T09:12:59.194Z,44.10
2018-07-19T09:15:27.661Z,45.00
2018-07-19T09:17:56.197Z,44.60
2018-07-19T09:20:24.689Z,43.80
2018-07-19T09:22:53.217Z,43.40
2018-07-19T09:25:22.486Z,43.20
2018-07-19T09:27:50.982Z,43.00
2018-07-19T09:30:19.584Z,43.00
2018-07-19T09:32:48.079Z,43.50
2018-07-19T09:35:17.647Z,40.30
2018-07-19T09:37:46.244Z,40.80
2018-07-19T09:40:15.860Z,40.30
2018-07-19T09:42:44.497Z,41.20
2018-07-19T09:45:12.945Z,42.10
2018-07-19T09:47:41.405Z,42.30
2018-07-19T09:50:10.144Z,41.50
2018-07-19T09:52:38.721Z,39.70
2018-07-19T09:55:07.144Z,39.70
2018-07-19T09:57:35.645Z,41.50
2018-07-19T10:00:04.181Z,41.60
2018-07-19T10:02:32.787Z,41.70
2018-07-19T10:05:01.319Z,42.60
2018-07-19T10:07:29.756Z,42.10
2018-07-19T10:09:58.242Z,41.80
2018-07-19T10:12:26.750Z,41.00
2018-07-19T10:14:55.209Z,41.40
2018-07-19T10:17:23.782Z,40.20
2018-07-19T10:19:52.245Z,40.30
2018-07-19T10:22:20.784Z,41.70
2018-07-19T10:24:49.397Z,40.00
2018-07-19T10:27:18.026Z,38.80
2018-07-19T10:29:46.681Z,39.20
2018-07-19T10:32:15.189Z,39.30
2018-07-19T10:34:43.518Z,37.70
2018-07-19T10:37:12.101Z,36.90
2018-07-19T10:39:40.584Z,37.00
2018-07-19T10:42:10.185Z,38.10
2018-07-19T10:44:38.721Z,38.40
2018-07-19T10:47:07.320Z,38.70
2018-07-19T10:49:35.817Z,38.80
2018-07-19T10:52:04.413Z,37.40
2018-07-19T10:54:32.841Z,38.50
2018-07-19T10:57:01.293Z,38.30
2018-07-19T10:59:29.793Z,38.60
2018-07-19T11:01:58.226Z,39.40
2018-07-19T11:04:27.069Z,38.90
2018-07-19T11:06:55.534Z,35.30
2018-07-19T11:09:23.981Z,35.50
2018-07-19T11:11:52.448Z,35.80
2018-07-19T11:14:20.971Z,36.40
2018-07-19T11:19:17.452Z,37.30
2018-07-19T11:21:45.891Z,35.80
2018-07-19T11:24:14.568Z,36.80
2018-07-19T11:26:43.076Z,37.20
2018-07-19T11:29:11.707Z,38.80
2018-07-19T11:31:40.240Z,37.20
2018-07-19T11:34:08.701Z,37.60
2018-07-19T11:39:08.459Z,35.60
2018-07-19T11:41:37.385Z,34.80
2018-07-19T11:44:06.736Z,35.30
2018-07-19T11:46:35.188Z,35.70
2018-07-19T11:49:03.717Z,37.50
2018-07-19T11:51:32.456Z,38.00
2018-07-19T11:54:00.867Z,38.30
2018-07-19T11:56:29.294Z,37.30
2018-07-19T11:58:57.844Z,36.60
2018-07-19T12:01:26.416Z,37.80
2018-07-19T12:03:54.971Z,37.90
2018-07-19T12:06:23.453Z,38.40
2018-07-19T12:08:51.901Z,38.90
2018-07-19T12:11:20.517Z,38.30
2018-07-19T12:13:49.241Z,38.30
2018-07-19T12:16:17.793Z,39.10
2018-07-19T12:18:46.405Z,38.80
2018-07-19T12:21:14.967Z,38.40
2018-07-19T12:23:43.323Z,37.90
2018-07-19T12:26:11.867Z,38.00
2018-07-19T12:28:40.435Z,37.50
2018-07-19T12:31:08.938Z,38.80
2018-07-19T12:33:37.415Z,39.30
2018-07-19T12:36:06.047Z,39.20
2018-07-19T12:38:34.501Z,39.20
2018-07-19T12:41:03.070Z,38.60
2018-07-19T12:43:31.583Z,38.70
2018-07-19T12:46:00.109Z,38.00
2018-07-19T12:48:28.524Z,38.40
2018-07-19T12:50:57.021Z,37.40
2018-07-19T12:53:25.555Z,38.30
2018-07-19T12:55:54.248Z,38.20
2018-07-19T12:58:22.693Z,38.10
2018-07-19T13:00:51.157Z,37.90
2018-07-19T13:03:19.678Z,37.90
2018-07-19T13:05:48.141Z,37.30
2018-07-19T13:08:16.653Z,37.50
2018-07-19T13:10:45.049Z,37.50
2018-07-19T13:13:13.499Z,37.30
2018-07-19T13:15:42.861Z,38.10
2018-07-19T13:18:11.259Z,38.00
2018-07-19T13:20:39.839Z,38.30
2018-07-19T13:23:08.323Z,37.10
2018-07-19T13:25:37.161Z,37.50
2018-07-19T13:28:05.881Z,36.70
2018-07-19T13:30:34.505Z,37.60
2018-07-19T13:33:02.933Z,37.50
2018-07-19T13:35:31.491Z,37.90
2018-07-19T13:40:27.926Z,37.40
2018-07-19T13:42:56.397Z,38.10
2018-07-19T13:45:25.196Z,37.90
2018-07-19T13:47:53.648Z,38.50
2018-07-19T13:50:22.167Z,38.30
2018-07-19T13:53:01.953Z,37.80
2018-07-19T13:55:30.406Z,37.30
2018-07-19T14:02:54.786Z,38.80
2018-07-19T14:05:23.128Z,38.50
2018-07-19T14:07:51.413Z,39.10
2018-07-19T14:10:19.909Z,38.50
2018-07-19T14:12:48.438Z,38.40
2018-07-19T14:17:45.480Z,38.50
2018-07-19T14:20:14.014Z,38.50
2018-07-19T14:22:42.489Z,37.80
2018-07-19T14:25:11.785Z,38.70
2018-07-19T14:27:40.350Z,38.70
2018-07-19T14:30:09.961Z,39.10
2018-07-19T14:32:38.460Z,37.80
2018-07-19T14:35:07.011Z,37.80
2018-07-19T14:37:35.464Z,39.10
2018-07-19T14:40:03.973Z,38.50
2018-07-19T14:42:32.483Z,39.60
2018-07-19T14:45:00.985Z,39.40
2018-07-19T14:47:29.969Z,39.60
2018-07-19T14:49:58.521Z,39.40
2018-07-19T14:52:27.144Z,39.50
2018-07-19T14:54:55.747Z,39.20
2018-07-19T14:57:24.268Z,39.90
2018-07-19T14:59:52.673Z,39.50
2018-07-19T15:02:21.149Z,39.60
2018-07-19T15:04:49.629Z,39.60
2018-07-19T15:07:18.065Z,39.30
2018-07-19T15:09:46.558Z,39.30
2018-07-19T15:12:14.996Z,39.60
2018-07-19T15:14:43.429Z,39.40
2018-07-19T15:17:12.126Z,39.30
2018-07-19T15:19:40.573Z,39.60
2018-07-19T15:22:09.082Z,38.20
2018-07-19T15:24:37.517Z,39.20
2018-07-19T15:27:06.005Z,39.80
2018-07-19T15:29:34.833Z,39.60
2018-07-19T15:32:03.377Z,39.50
2018-07-19T15:34:31.930Z,38.80
2018-07-19T15:37:00.927Z,38.60
2018-07-19T15:39:29.445Z,38.80
2018-07-19T15:41:57.917Z,38.60
2018-07-19T15:46:54.721Z,38.50
2018-07-19T15:49:23.201Z,39.30
2018-07-19T15:51:51.673Z,39.50
2018-07-19T15:54:20.109Z,39.10
2018-07-19T15:56:48.616Z,40.00
2018-07-19T15:59:17.145Z,39.20
2018-07-19T16:01:45.673Z,38.70
2018-07-19T16:04:14.174Z,38.80
2018-07-19T16:06:42.757Z,39.50
2018-07-19T16:09:12.519Z,39.60
2018-07-19T16:11:41.969Z,39.10
2018-07-19T16:14:11.661Z,39.70
2018-07-19T16:16:41.501Z,39.10
2018-07-19T16:19:10.037Z,39.60
2018-07-19T16:21:38.849Z,39.50
2018-07-19T16:24:07.490Z,39.80
2018-07-19T16:26:35.977Z,39.80
2018-07-19T16:29:04.762Z,39.90
2018-07-19T16:31:33.439Z,40.60
2018-07-19T16:34:02.174Z,40.10
2018-07-19T16:36:30.733Z,40.70
2018-07-19T16:38:59.223Z,40.70
2018-07-19T16:41:27.682Z,42.00
2018-07-19T16:43:56.302Z,41.80
2018-07-19T16:46:25.104Z,41.70
2018-07-19T16:48:53.553Z,41.80
2018-07-19T16:51:23.295Z,42.00
2018-07-19T16:56:21.562Z,42.40
2018-07-19T16:58:50.199Z,42.20
2018-07-19T17:01:19.813Z,42.70
2018-07-19T17:03:48.273Z,42.60
2018-07-19T17:06:16.753Z,42.00
2018-07-19T17:08:45.166Z,42.10
2018-07-19T17:11:13.662Z,42.90
2018-07-19T17:13:42.233Z,42.80
2018-07-19T17:16:10.715Z,43.00
2018-07-19T17:18:39.201Z,43.30
2018-07-19T17:21:07.727Z,43.00
2018-07-19T17:23:36.157Z,43.40
2018-07-19T17:26:04.701Z,43.40
2018-07-19T17:28:33.197Z,43.00
2018-07-19T17:31:03.817Z,42.90
2018-07-19T17:33:32.410Z,43.20
2018-07-19T17:36:06.365Z,43.30
2018-07-19T17:38:34.872Z,43.10
2018-07-19T17:41:03.643Z,43.50
2018-07-19T17:43:32.740Z,43.80
2018-07-19T17:46:02.538Z,44.50
2018-07-19T17:53:36.710Z,43.90
2018-07-19T18:14:46.208Z,45.70
2018-07-19T18:17:25.389Z,45.60
2018-07-19T18:20:24.946Z,45.70
2018-07-19T18:27:52.291Z,45.70
2018-07-19T18:30:22.915Z,46.30
2018-07-19T18:32:51.872Z,46.00
2018-07-19T18:35:20.469Z,45.10
2018-07-19T18:37:49.295Z,47.40
2018-07-19T18:40:24.219Z,47.20
2018-07-19T18:42:52.998Z,47.60
2018-07-19T18:45:22.850Z,47.20
2018-07-19T18:47:51.497Z,47.60
2018-07-19T18:50:20.326Z,47.70
2018-07-19T18:52:49.481Z,47.90
2018-07-19T18:55:18.305Z,47.90
2018-07-19T18:57:47.131Z,48.40
2018-07-19T19:00:16.003Z,48.60
2018-07-19T19:02:44.517Z,48.70
2018-07-19T19:05:13.009Z,49.10
2018-07-19T19:07:41.723Z,48.90
2018-07-19T19:10:10.378Z,49.10
2018-07-19T19:12:39.312Z,49.50
2018-07-19T19:15:08.066Z,49.70
2018-07-19T19:17:36.497Z,49.80
2018-07-19T19:20:05.433Z,50.00
2018-07-19T19:22:33.765Z,50.10
2018-07-19T19:25:02.190Z,49.90
2018-07-19T19:27:30.661Z,50.10
2018-07-19T19:29:59.127Z,50.20
2018-07-19T19:32:27.657Z,50.60
2018-07-19T19:34:56.221Z,50.40
2018-07-19T19:37:24.691Z,51.10
2018-07-19T19:39:53.293Z,51.30
2018-07-19T19:42:21.758Z,51.20
2018-07-19T19:44:50.254Z,51.70
2018-07-19T19:47:18.737Z,51.70
2018-07-19T19:49:47.291Z,52.10
2018-07-19T19:52:16.229Z,51.80
2018-07-19T19:54:45.226Z,51.90
2018-07-19T19:57:13.810Z,52.30
2018-07-19T19:59:42.611Z,52.60
2018-07-19T20:02:11.289Z,52.70
2018-07-19T20:04:39.922Z,52.70
2018-07-19T20:07:08.632Z,52.90
2018-07-19T20:09:37.701Z,53.00
2018-07-19T20:12:06.483Z,52.90
2018-07-19T20:14:34.989Z,52.90
2018-07-19T20:17:03.496Z,53.20
2018-07-19T20:19:32.130Z,53.20
2018-07-19T20:22:00.702Z,53.20
2018-07-19T20:24:29.330Z,53.20
2018-07-19T20:26:57.956Z,53.30
2018-07-19T20:29:26.616Z,53.60
2018-07-19T20:31:55.126Z,53.60
2018-07-19T20:34:23.874Z,53.60
2018-07-19T20:36:52.617Z,53.70
2018-07-19T20:39:21.145Z,53.90
2018-07-19T20:41:50.768Z,53.90
2018-07-19T20:44:19.349Z,54.10
2018-07-19T20:46:48.044Z,54.30
2018-07-19T20:49:16.606Z,54.40
2018-07-19T20:51:45.145Z,54.30
2018-07-19T20:54:14.097Z,54.40
2018-07-19T20:56:42.793Z,54.40
2018-07-19T20:59:11.881Z,54.40
2018-07-19T21:01:40.527Z,54.40
2018-07-19T21:04:09.818Z,54.50
2018-07-19T21:06:38.730Z,54.80
2018-07-19T21:09:09.737Z,54.90
2018-07-19T21:11:38.327Z,55.20
2018-07-19T21:14:06.876Z,55.30
2018-07-19T21:16:38.892Z,55.30
2018-07-19T21:19:07.393Z,55.30
2018-07-19T21:21:37.040Z,55.40
2018-07-19T21:24:05.661Z,55.50
2018-07-19T21:26:34.307Z,55.40
2018-07-19T21:29:02.840Z,55.60
2018-07-19T21:31:32.567Z,55.70
2018-07-19T21:34:01.034Z,55.70
2018-07-19T21:36:29.513Z,55.70
2018-07-19T21:38:58.262Z,55.90
2018-07-19T21:41:27.844Z,56.00
2018-07-19T21:43:56.589Z,56.00
2018-07-19T21:46:25.181Z,56.00
2018-07-19T21:51:22.229Z,56.30
2018-07-19T21:53:50.773Z,56.30
2018-07-19T21:56:19.307Z,56.20
2018-07-19T21:58:47.850Z,56.30
2018-07-19T22:01:16.140Z,56.70
2018-07-19T22:03:44.581Z,56.70
2018-07-19T22:06:13.033Z,56.60
2018-07-19T22:08:41.608Z,56.70
2018-07-19T22:11:10.218Z,56.80
2018-07-19T22:13:38.629Z,56.80
2018-07-19T22:16:07.113Z,56.80
2018-07-19T22:18:36.771Z,57.00
2018-07-19T22:21:05.289Z,56.90
2018-07-19T22:23:33.763Z,57.20
2018-07-19T22:26:02.299Z,57.30
2018-07-19T22:28:30.822Z,57.30
2018-07-19T22:30:59.381Z,57.30
2018-07-19T22:33:27.768Z,57.40
2018-07-19T22:35:56.177Z,57.60
2018-07-19T22:38:24.678Z,57.60
2018-07-19T22:40:53.216Z,57.60
2018-07-19T22:43:21.785Z,57.80
2018-07-19T22:45:50.307Z,57.50
2018-07-19T22:48:18.888Z,57.50
2018-07-19T22:50:47.351Z,57.70
2018-07-19T22:53:16.245Z,58.00
2018-07-19T22:55:44.681Z,57.90
2018-07-19T22:58:13.243Z,58.00
2018-07-19T23:00:41.713Z,57.90
2018-07-19T23:03:10.229Z,57.80
2018-07-19T23:05:38.705Z,58.10
2018-07-19T23:08:07.310Z,58.20
2018-07-19T23:10:35.877Z,58.40
2018-07-19T23:13:04.396Z,58.50
2018-07-19T23:15:33.101Z,58.50
2018-07-19T23:18:01.450Z,58.50
2018-07-19T23:20:30.034Z,58.70
2018-07-19T23:22:59.637Z,58.80
2018-07-19T23:25:28.173Z,58.80
2018-07-19T23:27:57.362Z,58.80
2018-07-19T23:30:28.345Z,58.90
2018-07-19T23:32:56.989Z,58.90
2018-07-19T23:35:29.833Z,58.90
2018-07-19T23:38:00.188Z,58.90
2018-07-19T23:40:31.460Z,59.00
2018-07-19T23:43:10.073Z,59.20
2018-07-19T23:48:15.821Z,59.40
2018-07-19T23:50:44.381Z,59.40
2018-07-19T23:53:12.907Z,59.50
2018-07-19T23:55:41.381Z,59.40
2018-07-19T23:58:13.015Z,59.30
